createdAt,value
2019-04-11T00:04:24.702Z,9.10
2019-04-11T00:09:24.852Z,9.00
2019-04-11T00:14:24.972Z,8.80
2019-04-11T00:19:24.590Z,8.80
2019-04-11T00:24:25.034Z,8.70
2019-04-11T00:29:24.710Z,8.80
2019-04-11T00:34:24.720Z,8.70
2019-04-11T00:39:24.347Z,8.70
2019-04-11T00:44:24.898Z,8.60
2019-04-11T00:49:26.138Z,8.50
2019-04-11T00:54:26.798Z,8.70
2019-04-11T00:59:27.564Z,8.50
2019-04-11T01:04:27.660Z,8.50
2019-04-11T01:09:28.391Z,8.60
2019-04-11T01:14:28.246Z,8.70
2019-04-11T01:19:29.000Z,8.70
2019-04-11T01:24:28.854Z,8.60
2019-04-11T01:29:28.742Z,8.50
2019-04-11T01:34:28.739Z,8.40
2019-04-11T01:39:49.565Z,8.60
2019-04-11T01:44:49.651Z,8.60
2019-04-11T01:49:49.297Z,8.70
2019-04-11T01:54:50.010Z,8.90
2019-04-11T01:59:51.302Z,8.90
2019-04-11T02:05:10.553Z,8.80
2019-04-11T02:10:10.621Z,8.90
2019-04-11T02:15:10.414Z,8.90
2019-04-11T02:20:10.164Z,8.90
2019-04-11T02:25:22.728Z,8.90
2019-04-11T02:30:22.942Z,8.80
2019-04-11T02:35:24.157Z,8.70
2019-04-11T02:40:24.571Z,8.70
2019-04-11T02:45:36.963Z,8.80
2019-04-11T02:50:26.732Z,8.90
2019-04-11T02:55:27.720Z,8.90
2019-04-11T03:00:40.293Z,8.90
2019-04-11T03:05:41.937Z,8.90
2019-04-11T03:10:43.015Z,8.80
2019-04-11T03:16:00.508Z,8.60
2019-04-11T03:20:49.694Z,8.40
2019-04-11T03:25:46.909Z,8.30
2019-04-11T03:31:13.080Z,8.20
2019-04-11T03:36:38.675Z,8.20
2019-04-11T03:41:13.584Z,8.10
2019-04-11T03:46:11.253Z,8.20
2019-04-11T03:50:57.148Z,8.30
2019-04-11T03:55:56.152Z,8.50
2019-04-11T04:01:02.828Z,8.40
2019-04-11T04:06:01.680Z,8.20
2019-04-11T04:11:34.267Z,7.80
2019-04-11T04:16:58.894Z,7.60
2019-04-11T04:22:03.045Z,7.60
2019-04-11T04:27:04.542Z,7.50
2019-04-11T04:32:06.005Z,7.30
2019-04-11T04:37:07.884Z,7.10
2019-04-11T04:42:16.819Z,7.30
2019-04-11T04:47:21.066Z,7.40
2019-04-11T04:52:14.034Z,7.30
2019-04-11T04:57:13.250Z,7.50
2019-04-11T05:02:13.017Z,7.60
2019-04-11T05:07:12.841Z,7.60
2019-04-11T05:12:13.827Z,7.60
2019-04-11T05:17:14.876Z,7.60
2019-04-11T05:22:14.694Z,7.70
2019-04-11T05:27:14.698Z,7.70
2019-04-11T05:32:15.442Z,7.80
2019-04-11T05:37:15.355Z,7.80
2019-04-11T05:42:17.723Z,7.70
2019-04-11T05:47:18.554Z,7.70
2019-04-11T05:52:18.327Z,7.50
2019-04-11T05:57:22.867Z,7.60
2019-04-11T06:02:26.909Z,7.80
2019-04-11T06:07:37.327Z,8.00
2019-04-11T06:13:04.575Z,8.10
2019-04-11T06:18:10.345Z,8.30
2019-04-11T06:23:31.945Z,8.60
2019-04-11T06:28:32.569Z,8.70
2019-04-11T06:33:34.832Z,8.90
2019-04-11T06:38:52.191Z,9.10
2019-04-11T06:44:04.777Z,9.10
2019-04-11T06:49:12.000Z,9.30
2019-04-11T06:54:37.136Z,9.30
2019-04-11T06:59:40.787Z,9.60
2019-04-11T07:04:47.447Z,9.60
2019-04-11T07:09:59.743Z,9.80
2019-04-11T07:15:12.194Z,9.90
2019-04-11T07:20:37.918Z,10.00
2019-04-11T07:26:04.693Z,10.20
2019-04-11T07:31:23.361Z,10.50
2019-04-11T07:36:41.039Z,10.70
2019-04-11T07:42:00.180Z,11.00
2019-04-11T07:47:17.227Z,11.20
2019-04-11T07:52:12.766Z,11.40
2019-04-11T07:57:17.164Z,11.50
2019-04-11T08:02:39.895Z,11.70
2019-04-11T08:08:13.834Z,12.00
2019-04-11T08:13:22.599Z,12.20
2019-04-11T08:18:30.863Z,12.40
2019-04-11T08:23:43.547Z,12.60
2019-04-11T08:28:45.562Z,12.80
2019-04-11T08:33:46.730Z,13.00
2019-04-11T08:38:46.789Z,13.00
2019-04-11T08:43:47.589Z,13.10
2019-04-11T08:48:51.205Z,13.30
2019-04-11T08:54:09.533Z,13.40
2019-04-11T08:59:46.111Z,13.60
2019-04-11T09:05:07.074Z,13.80
2019-04-11T09:10:21.954Z,14.20
2019-04-11T09:15:39.882Z,14.60
2019-04-11T09:21:16.803Z,14.40
2019-04-11T09:26:51.917Z,14.40
2019-04-11T09:32:22.757Z,14.40
2019-04-11T09:37:30.762Z,14.60
2019-04-11T09:43:05.058Z,14.40
2019-04-11T09:48:29.791Z,14.30
2019-04-11T09:53:30.337Z,14.00
2019-04-11T09:58:30.033Z,13.80
2019-04-11T10:03:30.715Z,13.80
2019-04-11T10:08:45.302Z,14.00
2019-04-11T10:14:10.074Z,14.30
2019-04-11T10:19:17.674Z,14.60
2019-04-11T10:24:40.761Z,14.60
2019-04-11T10:29:59.442Z,14.70
2019-04-11T10:35:18.422Z,14.40
2019-04-11T10:40:50.382Z,14.00
2019-04-11T10:45:58.925Z,13.80
2019-04-11T10:51:12.994Z,13.50
2019-04-11T10:56:39.202Z,13.20
2019-04-11T11:01:58.140Z,13.00
2019-04-11T11:07:02.333Z,12.80
2019-04-11T11:12:25.718Z,12.90
2019-04-11T11:18:11.370Z,13.00
2019-04-11T11:23:06.947Z,13.10
2019-04-11T11:28:05.441Z,13.20
2019-04-11T11:33:05.727Z,13.10
2019-04-11T11:38:13.490Z,13.10
2019-04-11T11:43:41.513Z,13.00
2019-04-11T11:49:02.933Z,13.00
2019-04-11T11:54:11.561Z,13.10
2019-04-11T11:59:25.235Z,13.30
2019-04-11T12:04:50.334Z,13.30
2019-04-11T12:10:07.410Z,13.40
2019-04-11T12:15:26.831Z,13.40
2019-04-11T12:20:32.813Z,13.40
2019-04-11T12:25:38.977Z,13.50
2019-04-11T12:30:44.119Z,13.50
2019-04-11T12:35:54.825Z,13.40
2019-04-11T12:41:12.865Z,13.30
2019-04-11T12:46:30.464Z,13.40
2019-04-11T12:51:47.998Z,13.30
2019-04-11T12:57:18.954Z,13.40
2019-04-11T13:02:46.912Z,13.50
2019-04-11T13:08:23.789Z,13.60
2019-04-11T13:13:34.502Z,13.70
2019-04-11T13:18:46.669Z,13.70
2019-04-11T13:24:11.434Z,13.70
2019-04-11T13:29:39.122Z,13.70
2019-04-11T13:34:39.191Z,13.60
2019-04-11T13:39:38.804Z,13.50
2019-04-11T13:44:39.982Z,13.20
2019-04-11T13:49:50.669Z,13.00
2019-04-11T13:55:08.377Z,12.70
2019-04-11T14:00:30.826Z,12.50
2019-04-11T14:05:31.328Z,12.30
2019-04-11T14:10:31.659Z,12.20
2019-04-11T14:15:31.909Z,12.30
2019-04-11T14:20:42.138Z,12.40
2019-04-11T14:26:01.157Z,12.20
2019-04-11T14:31:27.689Z,11.90
2019-04-11T14:36:45.985Z,11.60
2019-04-11T14:42:11.797Z,11.40
2019-04-11T14:47:39.174Z,11.30
2019-04-11T14:53:04.579Z,11.20
2019-04-11T14:58:23.765Z,11.30
2019-04-11T15:03:33.798Z,11.50
2019-04-11T15:08:55.669Z,11.50
2019-04-11T15:13:59.359Z,11.30
2019-04-11T15:19:01.433Z,11.20
2019-04-11T15:24:01.577Z,11.20
2019-04-11T15:29:08.287Z,11.40
2019-04-11T15:34:27.012Z,11.50
2019-04-11T15:39:44.866Z,11.40
2019-04-11T15:45:19.021Z,11.20
2019-04-11T15:50:36.405Z,11.10
2019-04-11T15:55:53.154Z,11.30
2019-04-11T16:01:17.194Z,11.40
2019-04-11T16:06:35.228Z,11.20
2019-04-11T16:11:55.014Z,10.90
2019-04-11T16:17:23.034Z,10.90
2019-04-11T16:22:43.016Z,10.80
2019-04-11T16:28:08.145Z,10.70
2019-04-11T16:33:17.847Z,10.50
2019-04-11T16:38:19.596Z,10.40
2019-04-11T16:43:24.083Z,10.40
2019-04-11T16:48:21.101Z,10.30
2019-04-11T16:53:21.052Z,10.20
2019-04-11T16:58:20.690Z,10.20
2019-04-11T17:03:24.681Z,10.10
2019-04-11T17:08:35.198Z,10.00
2019-04-11T17:13:34.823Z,9.90
2019-04-11T17:18:35.055Z,9.70
2019-04-11T17:23:34.741Z,9.60
2019-04-11T17:28:34.636Z,9.50
2019-04-11T17:33:34.305Z,9.50
2019-04-11T17:38:36.962Z,9.50
2019-04-11T17:43:35.570Z,9.60
2019-04-11T17:48:35.279Z,9.60
2019-04-11T17:53:34.982Z,9.60
2019-04-11T17:58:34.625Z,9.40
2019-04-11T18:03:34.224Z,9.30
2019-04-11T18:08:33.873Z,9.40
2019-04-11T18:13:33.552Z,9.40
2019-04-11T18:18:35.236Z,9.50
2019-04-11T18:23:36.066Z,9.60
2019-04-11T18:28:35.874Z,9.30
2019-04-11T18:33:35.617Z,9.20
2019-04-11T18:38:35.342Z,9.40
2019-04-11T18:43:35.494Z,9.50
2019-04-11T18:48:36.011Z,9.70
2019-04-11T18:53:35.644Z,9.80
2019-04-11T18:58:35.285Z,9.70
2019-04-11T19:03:36.284Z,9.50
2019-04-11T19:08:36.441Z,9.30
2019-04-11T19:13:36.109Z,9.50
2019-04-11T19:18:35.725Z,9.30
2019-04-11T19:23:38.773Z,9.20
2019-04-11T19:28:37.495Z,9.30
2019-04-11T19:33:39.703Z,9.20
2019-04-11T19:38:38.389Z,9.10
2019-04-11T19:43:40.669Z,9.20
2019-04-11T19:48:39.685Z,9.10
2019-04-11T19:53:39.316Z,9.00
2019-04-11T19:58:39.047Z,8.90
2019-04-11T20:03:39.396Z,8.70
2019-04-11T20:08:39.085Z,8.90
2019-04-11T20:13:39.152Z,9.10
2019-04-11T20:18:49.993Z,9.10
2019-04-11T20:23:41.764Z,9.00
2019-04-11T20:28:42.828Z,9.00
2019-04-11T20:33:42.530Z,9.00
2019-04-11T20:38:44.710Z,8.90
2019-04-11T20:43:44.882Z,8.80
2019-04-11T20:48:45.199Z,8.90
2019-04-11T20:53:45.366Z,9.10
2019-04-11T20:58:45.291Z,9.30
2019-04-11T21:03:45.055Z,9.00
2019-04-11T21:08:44.682Z,9.00
2019-04-11T21:13:45.294Z,8.90
2019-04-11T21:18:44.939Z,8.90
2019-04-11T21:23:44.869Z,9.00
2019-04-11T21:28:44.514Z,8.80
2019-04-11T21:33:44.177Z,8.70
2019-04-11T21:38:43.905Z,8.80
2019-04-11T21:43:44.198Z,8.90
2019-04-11T21:48:43.825Z,8.90
2019-04-11T21:53:45.298Z,8.70
2019-04-11T21:58:45.076Z,8.60
2019-04-11T22:03:45.970Z,8.40
2019-04-11T22:08:45.846Z,8.50
2019-04-11T22:13:45.549Z,8.50
2019-04-11T22:18:45.189Z,8.30
2019-04-11T22:23:48.909Z,8.30
2019-04-11T22:28:46.105Z,8.40
2019-04-11T22:33:58.422Z,8.50
2019-04-11T22:38:58.705Z,8.60
2019-04-11T22:43:59.526Z,8.50
2019-04-11T22:48:59.252Z,8.60
2019-04-11T22:54:00.562Z,8.60
2019-04-11T22:59:00.462Z,8.70
2019-04-11T23:04:01.469Z,8.90
2019-04-11T23:09:01.137Z,8.90
2019-04-11T23:14:02.367Z,8.80
2019-04-11T23:19:03.117Z,8.80
2019-04-11T23:24:11.474Z,8.80
2019-04-11T23:29:04.157Z,8.70
2019-04-11T23:34:03.842Z,8.60
2019-04-11T23:39:05.642Z,8.40
2019-04-11T23:44:05.938Z,8.40
2019-04-11T23:49:05.554Z,8.30
2019-04-11T23:54:06.161Z,8.40
2019-04-11T23:59:05.810Z,8.40
